Time;durP1;ratioP1;P1;durP2;ratioP2;P2;SDS_P1;SDS_P2;PMS_P1;PMS_P2;Temp;Humidity;BMP_temperature;BMP_pressure;BME280_temperature;BME280_humidity;BME280_pressure;Samples;Min_cycle;Max_cycle;Signal;HPM_P1;HPM_P2
2022/05/25 00:02:40;;;;;;;9.43;4.30;;;;;;;14.52;97.20;99567.63;6296040;28;20101;-74
2022/05/25 00:05:41;;;;;;;9.98;4.63;;;;;;;14.50;98.06;99572.19;6294689;28;20051;-74
2022/05/25 00:08:42;;;;;;;6.70;4.30;;;;;;;14.42;94.99;99575.44;6294615;28;20517;-74
2022/05/25 00:11:43;;;;;;;7.60;4.40;;;;;;;14.43;96.16;99568.41;6282888;28;20041;-75
2022/05/25 00:14:44;;;;;;;14.88;5.15;;;;;;;14.37;97.59;99569.78;6299293;28;20047;-76
2022/05/25 00:17:45;;;;;;;6.65;4.15;;;;;;;14.36;97.98;99565.47;6300518;28;20056;-76
2022/05/25 00:20:46;;;;;;;8.27;4.28;;;;;;;14.35;97.86;99571.69;6299784;28;20090;-76
2022/05/25 00:23:46;;;;;;;7.75;4.28;;;;;;;14.36;98.59;99581.22;6299424;28;20093;-75
2022/05/25 00:26:47;;;;;;;9.25;4.63;;;;;;;14.31;98.97;99581.63;6282343;28;20044;-76
2022/05/25 00:29:48;;;;;;;8.13;4.82;;;;;;;14.34;96.60;99584.94;6299165;28;20561;-76
2022/05/25 00:32:49;;;;;;;7.00;4.07;;;;;;;14.27;98.51;99579.38;6298952;28;20040;-75
2022/05/25 00:35:50;;;;;;;9.82;4.95;;;;;;;14.16;96.75;99575.00;6299914;28;20056;-75
2022/05/25 00:38:51;;;;;;;7.90;4.88;;;;;;;14.15;98.44;99585.66;6298557;28;20059;-74
2022/05/25 00:41:51;;;;;;;8.57;4.88;;;;;;;14.07;98.73;99575.78;6282044;28;20124;-75
2022/05/25 00:44:52;;;;;;;7.53;4.63;;;;;;;14.06;98.12;99582.84;6281971;28;20048;-74
2022/05/25 00:47:53;;;;;;;9.57;4.72;;;;;;;13.99;97.23;99586.91;6299735;28;20119;-76
2022/05/25 00:51:12;;;;;;;5.13;4.10;;;;;;;13.91;100.00;99577.03;6265878;28;20052;-75
2022/05/25 00:54:22;;;;;;;6.65;4.13;;;;;;;13.89;100.00;99583.38;6281615;28;20060;-75
2022/05/25 00:57:27;;;;;;;7.45;3.83;;;;;;;13.87;98.14;99591.38;6298704;28;20463;-76
2022/05/25 01:00:30;;;;;;;5.07;4.00;;;;;;;13.86;100.00;99588.91;6299670;28;20185;-75
2022/05/25 01:03:32;;;;;;;5.93;3.67;;;;;;;13.87;100.00;99586.13;6299791;28;20055;-76
2022/05/25 01:06:36;;;;;;;;;;;;;;;13.80;97.64;99587.59;6298452;28;20060;-76
2022/05/25 01:09:51;;;;;;;5.97;3.70;;;;;;;13.72;95.70;99584.78;6299128;28;19920;-74
2022/05/25 01:13:12;;;;;;;8.63;3.88;;;;;;;13.77;96.40;99577.34;6298228;28;20040;-76
2022/05/25 01:16:34;;;;;;;5.57;3.65;;;;;;;13.68;95.25;99584.19;6297933;28;20048;-75
2022/05/25 01:19:47;;;;;;;;;;;;;;;13.57;95.63;99596.47;6299617;28;20116;-75
2022/05/25 01:22:54;;;;;;;6.97;3.88;;;;;;;13.62;95.52;99596.97;6299043;28;19926;-75
2022/05/25 01:26:07;;;;;;;5.20;3.40;;;;;;;13.63;97.19;99591.59;6297526;28;20483;-74
2022/05/25 01:29:45;;;;;;;6.00;3.63;;;;;;;13.63;95.74;99591.59;6297505;28;20052;-75
2022/05/25 01:32:55;;;;;;;11.05;4.10;;;;;;;13.54;96.31;99592.34;6297575;28;20045;-74
2022/05/25 01:36:12;;;;;;;5.25;3.40;;;;;;;13.56;95.06;99595.66;6297444;28;20102;-74
2022/05/25 01:39:19;;;;;;;6.70;3.50;;;;;;;13.59;96.42;99597.19;6297637;28;20068;-74
2022/05/25 01:42:34;;;;;;;7.68;3.63;;;;;;;13.60;98.14;99598.88;6297717;28;20036;-75
2022/05/25 01:45:43;;;;;;;4.30;3.50;;;;;;;13.57;94.52;99597.34;6297162;28;20101;-75
2022/05/25 01:48:46;;;;;;;7.28;3.33;;;;;;;13.60;94.82;99601.50;6298202;28;20063;-75
2022/05/25 01:51:56;;;;;;;7.93;3.38;;;;;;;13.65;97.47;99601.94;6298224;28;20052;-76
2022/05/25 01:55:04;;;;;;;3.90;3.10;;;;;;;13.56;94.03;99603.53;6298362;28;20048;-76
2022/05/25 01:58:14;;;;;;;5.68;3.20;;;;;;;13.51;93.27;99610.94;6297934;28;20052;-75
2022/05/25 02:01:14;;;;;;;5.20;2.90;;;;;;;13.54;91.36;99610.69;6297854;28;20116;-74
2022/05/25 02:04:21;;;;;;;5.80;3.03;;;;;;;13.60;91.85;99612.81;6247307;28;20048;-76
2022/05/25 02:07:59;;;;;;;5.45;3.13;;;;;;;13.61;89.26;99626.75;6296426;28;20106;-75
2022/05/25 02:11:16;;;;;;;6.68;3.20;;;;;;;13.65;89.15;99623.78;6296579;28;20468;-76
2022/05/25 02:14:32;;;;;;;9.70;3.70;;;;;;;13.70;89.52;99621.59;6297783;28;20064;-75
2022/05/25 02:17:51;;;;;;;4.15;3.05;;;;;;;13.77;89.32;99629.78;6297584;28;20048;-75
2022/05/25 02:21:20;;;;;;;4.40;3.42;;;;;;;13.82;92.95;99645.19;6296287;28;20040;-76
2022/05/25 02:24:29;;;;;;;8.40;3.33;;;;;;;13.80;93.04;99647.91;6297097;28;20064;-76
2022/05/25 02:27:52;;;;;;;5.82;3.45;;;;;;;13.80;88.87;99631.34;6296521;28;20044;-76
2022/05/25 02:30:56;;;;;;;6.97;3.38;;;;;;;13.85;90.29;99645.72;6293526;28;20075;-74
2022/05/25 02:34:02;;;;;;;7.88;4.00;;;;;;;13.83;88.55;99628.47;6295123;28;20052;-75
2022/05/25 02:37:05;;;;;;;6.90;4.07;;;;;;;13.88;86.20;99648.13;6296371;28;20139;-74
2022/05/25 02:40:08;;;;;;;6.78;4.28;;;;;;;13.93;86.85;99646.91;6294988;28;20041;-74
2022/05/25 02:43:10;;;;;;;5.43;4.10;;;;;;;13.99;84.48;99639.38;6294934;28;20053;-74
2022/05/25 02:46:10;;;;;;;7.70;3.80;;;;;;;14.08;84.33;99624.66;6295016;28;20506;-75
2022/05/25 02:49:12;;;;;;;9.55;4.07;;;;;;;14.12;85.50;99626.06;6294781;28;20285;-74
2022/05/25 02:52:14;;;;;;;8.27;4.57;;;;;;;14.14;85.99;99644.31;6296110;28;20115;-74
2022/05/25 02:55:15;;;;;;;9.82;4.50;;;;;;;14.22;86.30;99655.84;6296097;28;20566;-74
2022/05/25 02:58:17;;;;;;;8.48;4.50;;;;;;;14.18;84.00;99661.47;6296053;28;20046;-75
2022/05/25 03:01:17;;;;;;;7.93;3.97;;;;;;;14.23;84.24;99675.06;6296136;28;20049;-75
2022/05/25 03:04:19;;;;;;;6.45;3.97;;;;;;;14.36;82.34;99667.81;6294796;28;20040;-75
2022/05/25 03:07:20;;;;;;;9.70;3.75;;;;;;;14.47;79.97;99664.31;6295229;28;20079;-75
2022/05/25 03:10:21;;;;;;;6.85;3.85;;;;;;;14.65;80.27;99667.22;6295467;28;20127;-75
2022/05/25 03:13:22;;;;;;;7.18;4.10;;;;;;;14.71;82.86;99672.78;6277936;28;20036;-75
2022/05/25 03:16:23;;;;;;;9.50;3.55;;;;;;;14.76;85.32;99661.06;6277801;28;20133;-75
2022/05/25 03:19:24;;;;;;;8.55;3.78;;;;;;;14.76;83.89;99661.88;6294810;28;20066;-74
2022/05/25 03:22:26;;;;;;;7.53;4.80;;;;;;;14.84;81.04;99666.50;6294811;28;20068;-76
2022/05/25 03:25:26;;;;;;;10.75;4.22;;;;;;;14.93;80.54;99670.13;6296696;28;20537;-76
2022/05/25 03:28:27;;;;;;;5.47;3.60;;;;;;;15.01;80.52;99672.94;6296526;28;20045;-76
2022/05/25 03:31:28;;;;;;;7.20;4.10;;;;;;;15.06;81.52;99674.22;6295106;28;20124;-77
2022/05/25 03:34:29;;;;;;;10.25;4.75;;;;;;;15.08;84.96;99668.81;6296541;28;20166;-76
2022/05/25 03:37:29;;;;;;;11.65;3.63;;;;;;;15.08;84.74;99681.97;6296803;28;20468;-75
2022/05/25 03:40:30;;;;;;;9.43;3.53;;;;;;;15.09;86.83;99680.97;6295426;28;20047;-76
2022/05/25 03:43:34;;;;;;;8.03;3.90;;;;;;;15.15;86.68;99690.16;6296503;28;20047;-76
2022/05/25 03:46:37;;;;;;;10.15;4.28;;;;;;;15.20;86.19;99691.41;6299931;28;20048;-75
2022/05/25 03:49:37;;;;;;;6.45;3.50;;;;;;;15.29;84.12;99708.19;6300293;28;20044;-76
2022/05/25 03:52:39;;;;;;;11.00;4.07;;;;;;;15.33;82.73;99701.69;6301269;28;20079;-76
2022/05/25 03:55:41;;;;;;;9.75;4.63;;;;;;;15.39;84.17;99700.34;6301346;28;20048;-76
2022/05/25 03:58:43;;;;;;;6.75;3.63;;;;;;;15.43;82.76;99697.31;6283573;28;20055;-76
2022/05/25 04:01:44;;;;;;;8.48;3.75;;;;;;;15.51;83.46;99708.00;6301096;28;20045;-77
2022/05/25 04:04:45;;;;;;;9.03;3.97;;;;;;;15.58;83.84;99716.16;6301182;28;20463;-76
2022/05/25 04:07:47;;;;;;;10.50;3.42;;;;;;;15.65;84.65;99712.06;6300831;28;20187;-77
2022/05/25 04:10:48;;;;;;;;;;;;;;;15.79;82.76;99710.84;6283560;28;20399;-77
2022/05/25 04:13:49;;;;;;;7.88;3.63;;;;;;;15.90;82.17;99704.66;6299414;28;19921;-76
2022/05/25 04:16:50;;;;;;;9.07;4.00;;;;;;;15.98;82.34;99699.56;6300754;28;20478;-76
2022/05/25 04:19:51;;;;;;;12.60;3.83;;;;;;;16.01;82.51;99701.06;6298522;28;20139;-77
2022/05/25 04:22:52;;;;;;;7.75;4.28;;;;;;;16.03;83.07;99694.69;6265044;28;20070;-76
2022/05/25 04:25:53;;;;;;;8.73;4.77;;;;;;;16.05;82.67;99691.94;6298976;28;20376;-76
2022/05/25 04:28:54;;;;;;;11.93;5.13;;;;;;;16.02;84.25;99676.41;6299115;28;20048;-76
2022/05/25 04:31:55;;;;;;;9.45;5.25;;;;;;;15.97;83.34;99668.94;6299056;28;20037;-76
2022/05/25 04:34:58;;;;;;;8.88;4.90;;;;;;;16.00;82.90;99663.41;6300462;28;20125;-75
2022/05/25 04:37:59;;;;;;;7.55;4.55;;;;;;;16.09;86.45;99670.47;6283090;28;20079;-76
2022/05/25 04:41:01;;;;;;;8.70;5.10;;;;;;;16.15;89.86;99668.25;6300339;28;20097;-76
2022/05/25 04:44:03;;;;;;;8.93;4.88;;;;;;;16.13;87.77;99671.03;6298774;28;20269;-76
2022/05/25 04:47:08;;;;;;;7.38;4.47;;;;;;;16.06;88.92;99673.38;6299967;28;20124;-76
2022/05/25 04:50:11;;;;;;;10.88;4.88;;;;;;;15.98;89.51;99673.25;6282109;28;20062;-76
2022/05/25 04:53:14;;;;;;;9.73;4.80;;;;;;;15.94;90.80;99678.88;6282231;28;20040;-76
2022/05/25 04:59:34;;;;;;;15.05;5.05;;;;;;;16.09;90.94;99680.97;6298511;28;20070;-76
2022/05/25 05:02:35;;;;;;;8.55;4.80;;;;;;;16.17;89.77;99679.47;6298284;28;20139;-76
2022/05/25 05:05:36;;;;;;;14.07;5.00;;;;;;;16.28;87.75;99688.03;6281573;28;20052;-76
2022/05/25 05:08:37;;;;;;;16.88;5.38;;;;;;;16.40;87.97;99688.72;6281793;28;20041;-76
2022/05/25 05:11:38;;;;;;;12.00;5.28;;;;;;;16.60;84.55;99689.56;6299545;28;20041;-76
2022/05/25 05:14:39;;;;;;;16.95;6.25;;;;;;;16.64;83.56;99695.38;6298581;28;20044;-76
2022/05/25 05:17:39;;;;;;;10.80;5.60;;;;;;;16.67;85.37;99688.00;6281565;28;20068;-76
2022/05/25 05:20:40;;;;;;;10.60;5.38;;;;;;;16.87;83.74;99694.09;6298136;28;20411;-76
2022/05/25 05:23:43;;;;;;;16.65;5.78;;;;;;;17.12;82.63;99686.53;6299228;28;20102;-76
2022/05/25 05:26:44;;;;;;;14.88;5.30;;;;;;;17.32;77.85;99692.56;6299003;28;20433;-75
2022/05/25 05:29:44;;;;;;;8.20;5.00;;;;;;;17.46;75.42;99680.66;6281287;28;20063;-75
2022/05/25 05:32:45;;;;;;;13.80;4.90;;;;;;;17.53;74.64;99674.66;6297732;28;20390;-75
2022/05/25 05:35:54;;;;;;;6.05;4.70;;;;;;;17.62;73.94;99675.59;6298665;28;20170;-75
2022/05/25 05:39:01;;;;;;;14.68;5.20;;;;;;;17.62;73.81;99680.84;6297157;28;20047;-76
2022/05/25 05:42:05;;;;;;;9.88;5.10;;;;;;;17.75;74.16;99674.41;6297455;28;20040;-76
2022/05/25 05:45:14;;;;;;;13.18;4.80;;;;;;;17.71;71.22;99664.16;6298625;28;20048;-76
2022/05/25 05:48:21;;;;;;;12.07;4.10;;;;;;;17.72;71.79;99663.16;6280394;28;20044;-75
2022/05/25 05:51:22;;;;;;;9.35;4.55;;;;;;;17.84;74.84;99666.44;6296870;28;20071;-76
2022/05/25 05:54:23;;;;;;;9.63;5.20;;;;;;;18.10;74.94;99660.44;6263561;28;20456;-76
2022/05/25 05:57:25;;;;;;;11.30;4.88;;;;;;;18.37;71.59;99663.97;6280187;28;20047;-75
2022/05/25 06:00:26;;;;;;;4.60;3.37;;;;;;;18.61;69.94;99658.00;6279967;28;20117;-76
2022/05/25 06:03:27;;;;;;;6.13;3.57;;;;;;;18.68;70.04;99664.34;6298432;28;20382;-76
2022/05/25 06:06:27;;;;;;;6.07;3.50;;;;;;;18.82;68.87;99673.53;6279420;28;20495;-75
2022/05/25 06:09:28;;;;;;;6.17;3.87;;;;;;;18.97;67.68;99679.91;6279575;28;20032;-76
2022/05/25 06:12:32;;;;;;;8.90;3.67;;;;;;;19.11;66.33;99671.38;6279439;28;20127;-76
2022/05/25 06:22:15;;;;;;;9.15;3.53;;;;;;;19.27;66.71;99670.63;6296435;28;20056;-75
2022/05/25 06:25:16;;;;;;;16.80;3.63;;;;;;;19.32;66.63;99678.91;6278697;28;20059;-75
2022/05/25 06:28:17;;;;;;;15.13;3.43;;;;;;;19.40;66.30;99677.31;6295299;28;20123;-75
2022/05/25 06:31:18;;;;;;;10.50;3.27;;;;;;;19.51;65.06;99679.66;6294970;28;20129;-76
2022/05/25 06:34:19;;;;;;;16.15;3.08;;;;;;;19.84;65.28;99685.88;6296083;28;20510;-75
2022/05/25 06:37:23;;;;;;;10.33;3.00;;;;;;;20.11;64.30;99676.00;6295184;28;20050;-76
2022/05/25 06:40:25;;;;;;;9.98;3.30;;;;;;;20.38;62.96;99681.97;6296200;28;20090;-75
2022/05/25 06:43:25;;;;;;;11.00;3.03;;;;;;;20.48;61.77;99669.38;6278600;28;20328;-76
2022/05/25 06:46:26;;;;;;;9.03;2.90;;;;;;;20.57;60.71;99663.06;6278226;28;20051;-75
2022/05/25 06:49:27;;;;;;;8.73;3.17;;;;;;;20.80;62.01;99662.41;6296216;28;20494;-74
2022/05/25 06:52:29;;;;;;;10.50;3.50;;;;;;;20.96;60.31;99666.81;6296097;28;20044;-74
2022/05/25 06:55:29;;;;;;;19.48;4.00;;;;;;;21.12;59.32;99666.78;6294871;28;20101;-75
2022/05/25 06:58:32;;;;;;;16.07;3.97;;;;;;;21.24;57.99;99675.19;6278241;28;20044;-76
2022/05/25 07:01:32;;;;;;;7.18;3.08;;;;;;;21.42;56.56;99677.63;6295909;28;20041;-76
2022/05/25 07:04:33;;;;;;;12.73;3.20;;;;;;;21.48;55.91;99679.59;6278042;28;20136;-75
2022/05/25 07:07:34;;;;;;;8.77;3.13;;;;;;;21.72;55.17;99681.28;6294421;28;20477;-75
2022/05/25 07:10:35;;;;;;;6.70;2.93;;;;;;;21.86;55.16;99677.06;6294626;28;20092;-75
2022/05/25 07:13:36;;;;;;;4.93;2.93;;;;;;;21.88;53.22;99683.84;6278044;28;20141;-74
2022/05/25 07:16:37;;;;;;;12.17;2.40;;;;;;;22.09;51.24;99675.25;6294800;28;20044;-76
2022/05/25 07:19:37;;;;;;;8.23;2.73;;;;;;;22.23;51.17;99676.31;6277933;28;20419;-76
2022/05/25 07:22:40;;;;;;;9.40;2.63;;;;;;;22.35;51.81;99674.06;6277902;28;20457;-75
2022/05/25 07:25:41;;;;;;;6.60;2.83;;;;;;;22.38;50.61;99664.91;6294337;28;20101;-75
2022/05/25 07:28:42;;;;;;;6.05;2.75;;;;;;;22.47;49.51;99669.16;6295693;28;20061;-76
2022/05/25 07:31:47;;;;;;;10.57;2.97;;;;;;;22.72;50.98;99667.91;6294196;28;20466;-76
2022/05/25 07:34:57;;;;;;;6.25;2.10;;;;;;;22.89;49.43;99675.72;6277693;28;20495;-75
2022/05/25 07:37:58;;;;;;;11.35;2.65;;;;;;;22.90;48.13;99678.19;6295523;28;20045;-76
2022/05/25 07:41:00;;;;;;;7.70;2.60;;;;;;;23.17;47.30;99678.59;6277517;28;20052;-76
2022/05/25 07:44:01;;;;;;;14.88;2.13;;;;;;;23.27;46.50;99673.00;6277438;28;20102;-76
2022/05/25 07:47:03;;;;;;;;;;;;;;;23.19;46.30;99675.75;6295797;28;20051;-77
2022/05/25 07:50:05;;;;;;;12.33;2.60;;;;;;;23.26;46.19;99682.78;6294242;28;19925;-77
2022/05/25 07:53:55;;;;;;;6.72;2.30;;;;;;;23.48;45.93;99680.22;6294059;28;20285;-76
2022/05/25 07:56:33;;;;;;;11.48;2.58;;;;;;;23.73;45.68;99686.84;6292160;28;20060;-77
2022/05/25 07:59:34;;;;;;;8.93;2.55;;;;;;;24.06;44.11;99680.25;6295166;28;20119;-77
2022/05/25 08:06:00;;;;;;;7.05;3.00;;;;;;;24.40;44.15;99692.03;6295018;28;20040;-77
2022/05/25 08:09:02;;;;;;;4.72;2.60;;;;;;;24.38;45.41;99702.91;6295251;28;20094;-78
2022/05/25 08:12:06;;;;;;;6.82;2.50;;;;;;;24.75;48.07;99700.97;6295139;28;20041;-77
2022/05/25 08:15:09;;;;;;;6.25;2.65;;;;;;;24.50;48.26;99704.06;6294209;28;20036;-76
2022/05/25 08:18:12;;;;;;;7.68;3.10;;;;;;;24.50;48.42;99709.41;6295354;28;20525;-77
2022/05/25 08:21:13;;;;;;;8.50;2.70;;;;;;;24.52;47.57;99710.03;6294034;28;20040;-76
2022/05/25 08:24:15;;;;;;;10.27;2.70;;;;;;;24.72;47.68;99702.16;6293826;28;20515;-77
2022/05/25 08:27:16;;;;;;;7.25;2.10;;;;;;;24.97;46.34;99701.69;6293869;28;20047;-78
2022/05/25 08:30:20;;;;;;;12.57;2.60;;;;;;;25.12;46.12;99710.44;6294390;28;20048;-77
2022/05/25 08:33:22;;;;;;;12.13;2.50;;;;;;;25.51;46.11;99711.69;6298282;28;20044;-75
2022/05/25 08:36:23;;;;;;;10.85;2.38;;;;;;;25.48;45.75;99705.91;6299149;28;20098;-74
2022/05/25 08:39:24;;;;;;;9.73;2.30;;;;;;;25.61;47.64;99705.94;6281240;28;20064;-74
2022/05/25 08:42:29;;;;;;;6.30;2.40;;;;;;;25.95;46.23;99706.09;6299083;28;20036;-74
2022/05/25 08:45:37;;;;;;;6.07;2.17;;;;;;;26.02;45.50;99717.63;6297743;28;20044;-74
2022/05/25 08:48:39;;;;;;;7.32;2.22;;;;;;;26.09;45.69;99718.47;6297533;28;20098;-75
2022/05/25 08:51:42;;;;;;;7.18;2.17;;;;;;;26.09;43.56;99721.94;6247915;28;20048;-74
2022/05/25 08:54:43;;;;;;;4.72;2.40;;;;;;;26.01;44.61;99726.69;6297519;28;20419;-78
2022/05/25 08:57:53;;;;;;;5.90;2.60;;;;;;;26.16;44.33;99721.97;6297206;28;20052;-78
2022/05/25 09:00:57;;;;;;;7.03;2.80;;;;;;;26.17;44.34;99717.44;6299006;28;20495;-77
2022/05/25 09:04:09;;;;;;;7.00;2.55;;;;;;;26.64;43.86;99712.97;6297239;28;20056;-78
2022/05/25 09:07:44;;;;;;;8.02;2.47;;;;;;;26.95;43.07;99706.94;6298529;28;20054;-78
2022/05/25 09:10:51;;;;;;;13.63;2.78;;;;;;;27.06;41.29;99710.84;6297371;28;20052;-74
2022/05/25 09:14:11;;;;;;;3.35;2.05;;;;;;;26.66;44.57;99717.06;6298653;28;20082;-74
2022/05/25 09:17:31;;;;;;;7.63;2.42;;;;;;;26.74;42.96;99708.00;6296907;28;20060;-74
2022/05/25 09:20:37;;;;;;;4.25;2.10;;;;;;;26.47;44.93;99707.19;6296940;28;20044;-78
2022/05/25 09:23:38;;;;;;;10.00;2.10;;;;;;;26.16;47.03;99713.13;6296740;28;20049;-77
2022/05/25 09:26:39;;;;;;;2.88;1.85;;;;;;;25.76;47.05;99699.63;6296602;28;20135;-77
2022/05/25 09:29:41;;;;;;;5.82;1.85;;;;;;;25.99;47.94;99708.16;6280159;28;20045;-78
2022/05/25 09:33:01;;;;;;;4.05;2.17;;;;;;;25.93;48.45;99717.81;6296650;28;20403;-77
2022/05/25 09:36:11;;;;;;;5.47;2.10;;;;;;;25.52;50.23;99712.50;6296627;28;20048;-77
2022/05/25 09:39:25;;;;;;;8.82;2.00;;;;;;;25.52;50.40;99718.66;6296375;28;20105;-77
2022/05/25 09:42:26;;;;;;;10.13;1.92;;;;;;;25.60;50.23;99715.00;6296336;28;20487;-78
2022/05/25 09:45:42;;;;;;;5.85;2.35;;;;;;;25.78;49.19;99714.44;6280000;28;20055;-74
2022/05/25 09:49:02;;;;;;;9.32;1.95;;;;;;;26.43;48.95;99706.75;6279484;28;20044;-74
2022/05/25 09:52:14;;;;;;;6.20;2.05;;;;;;;26.80;48.09;99711.72;6296060;28;20049;-75
2022/05/25 09:56:06;;;;;;;4.88;2.40;;;;;;;27.48;46.87;99706.00;6279087;28;20045;-75
2022/05/25 09:59:32;;;;;;;11.52;2.17;;;;;;;28.07;45.85;99696.84;6228219;28;20187;-75
2022/05/25 10:02:42;;;;;;;9.60;2.38;;;;;;;28.10;43.68;99691.03;6249654;28;20449;-75
2022/05/25 10:05:54;;;;;;;12.27;2.40;;;;;;;28.38;42.80;99689.81;6295499;28;20253;-75
2022/05/25 10:09:10;;;;;;;5.07;1.90;;;;;;;28.29;43.42;99685.72;6296883;28;20040;-78
2022/05/25 10:12:37;;;;;;;2.55;1.70;;;;;;;28.41;42.80;99683.19;6279290;28;20139;-77
2022/05/25 10:15:38;;;;;;;4.25;2.10;;;;;;;28.64;41.38;99682.59;6276068;28;20121;-77
2022/05/25 10:18:42;;;;;;;5.35;2.03;;;;;;;28.39;43.31;99674.53;6295481;28;20487;-79
2022/05/25 10:21:58;;;;;;;7.00;2.30;;;;;;;27.97;43.24;99674.22;6295531;28;20086;-78
2022/05/25 10:25:05;;;;;;;4.78;2.10;;;;;;;27.84;43.71;99683.97;6295257;28;20037;-78
2022/05/25 10:28:28;;;;;;;4.35;2.13;;;;;;;28.57;41.83;99677.28;6295335;28;20049;-78
2022/05/25 10:38:20;;;;;;;5.28;1.92;;;;;;;28.84;40.90;99675.16;6295222;28;20045;-74
2022/05/25 10:41:40;;;;;;;4.55;1.90;;;;;;;28.69;43.00;99666.66;6296203;28;20666;-75
2022/05/25 10:44:41;;;;;;;6.57;1.83;;;;;;;28.66;43.62;99670.59;6296170;28;20041;-75
2022/05/25 10:47:57;;;;;;;6.85;2.30;;;;;;;27.83;42.67;99671.59;6294683;28;20044;-74
2022/05/25 10:51:01;;;;;;;7.85;2.20;;;;;;;27.87;45.17;99669.34;6296029;28;20493;-74
2022/05/25 10:57:56;;;;;;;6.97;2.45;;;;;;;28.36;43.03;99670.41;6294320;28;20487;-75
2022/05/25 11:01:03;;;;;;;8.23;2.80;;;;;;;28.44;42.00;99670.16;6277740;28;20525;-75
2022/05/25 11:04:25;;;;;;;5.22;2.78;;;;;;;28.72;42.08;99672.41;6295943;28;20392;-74
2022/05/25 11:07:38;;;;;;;3.75;2.47;;;;;;;28.67;42.13;99669.53;6295517;28;20110;-75
2022/05/25 11:11:17;;;;;;;5.00;2.67;;;;;;;28.33;40.43;99668.16;6295778;28;20055;-75
2022/05/25 11:14:39;;;;;;;8.98;2.60;;;;;;;28.91;39.93;99664.34;6288989;28;20080;-75
2022/05/25 11:17:55;;;;;;;7.57;2.45;;;;;;;28.93;41.66;99668.47;6295591;28;20056;-74
2022/05/25 11:21:23;;;;;;;9.90;2.50;;;;;;;28.60;41.49;99673.34;6294488;28;20055;-78
2022/05/25 11:25:02;;;;;;;5.65;2.67;;;;;;;28.43;40.51;99667.69;6295674;28;20036;-77
2022/05/25 11:28:25;;;;;;;11.82;2.72;;;;;;;28.52;42.54;99675.28;6294301;28;20051;-77
2022/05/25 11:31:39;;;;;;;7.20;2.75;;;;;;;28.33;44.42;99685.09;6295475;28;20045;-78
2022/05/25 11:35:17;;;;;;;6.68;2.70;;;;;;;28.32;44.26;99679.94;6277548;28;20056;-75
2022/05/25 11:38:33;;;;;;;6.40;2.80;;;;;;;29.25;41.48;99676.38;6294335;28;20048;-75
2022/05/25 11:41:55;;;;;;;9.05;2.83;;;;;;;29.68;41.39;99667.34;6294184;28;20157;-76
2022/05/25 11:45:03;;;;;;;4.80;2.78;;;;;;;29.65;41.36;99672.34;6277282;28;20057;-75
2022/05/25 11:48:16;;;;;;;5.80;2.90;;;;;;;29.51;41.76;99677.94;6295298;28;20131;-75
2022/05/25 11:51:25;;;;;;;4.22;2.38;;;;;;;29.07;42.40;99671.78;6294000;28;20059;-75
2022/05/25 11:54:59;;;;;;;7.38;3.25;;;;;;;28.37;43.88;99657.81;6295303;28;20064;-75
2022/05/25 11:58:12;;;;;;;9.10;3.17;;;;;;;27.90;44.73;99666.22;6261059;28;20072;-75
2022/05/25 12:01:30;;;;;;;9.18;2.50;;;;;;;27.68;45.99;99655.00;6293732;28;20363;-75
2022/05/25 12:05:08;;;;;;;13.00;3.28;;;;;;;28.38;44.80;99654.13;6277153;28;20497;-74
2022/05/25 12:08:47;;;;;;;5.47;3.10;;;;;;;28.52;44.08;99653.00;6299152;28;20419;-74
2022/05/25 12:12:09;;;;;;;8.70;3.40;;;;;;;29.07;44.92;99650.31;6299555;28;20363;-75
2022/05/25 12:15:49;;;;;;;7.97;3.00;;;;;;;29.24;41.96;99652.41;6298315;28;20055;-75
2022/05/25 12:19:03;;;;;;;6.25;3.20;;;;;;;29.37;42.83;99646.91;6281508;28;20120;-75
2022/05/25 12:22:15;;;;;;;10.75;3.08;;;;;;;29.25;40.82;99638.78;6298237;28;20075;-74
2022/05/25 12:25:18;;;;;;;6.70;2.95;;;;;;;29.35;41.79;99640.13;6298236;28;20483;-74
2022/05/25 12:28:22;;;;;;;7.70;3.00;;;;;;;29.17;42.65;99641.75;6297994;28;20053;-75
2022/05/25 12:31:28;;;;;;;7.00;3.08;;;;;;;28.98;42.79;99632.06;6298191;28;20148;-74
2022/05/25 12:34:35;;;;;;;6.18;3.30;;;;;;;29.22;41.76;99636.56;6297954;28;20049;-74
2022/05/25 12:37:51;;;;;;;6.97;3.17;;;;;;;29.37;42.84;99624.59;6297791;28;20135;-74
2022/05/25 12:40:53;;;;;;;6.70;2.95;;;;;;;29.71;43.57;99623.09;6298988;28;20576;-74
2022/05/25 12:48:30;;;;;;;6.72;2.85;;;;;;;29.68;40.95;99632.41;6297787;28;20041;-74
2022/05/25 12:50:57;;;;;;;15.55;3.47;;;;;;;29.84;40.93;99624.78;6296514;28;20448;-74
2022/05/25 12:54:07;;;;;;;8.93;3.92;;;;;;;29.85;41.91;99627.22;6297406;28;20053;-74
2022/05/25 12:57:23;;;;;;;9.45;3.30;;;;;;;29.80;41.93;99635.16;6297271;28;20048;-74
2022/05/25 13:00:36;;;;;;;12.02;3.10;;;;;;;29.44;43.02;99630.69;6297230;28;20054;-75
2022/05/25 13:04:00;;;;;;;7.85;3.35;;;;;;;29.27;44.19;99627.81;6298390;28;20044;-77
2022/05/25 13:07:01;;;;;;;7.55;3.42;;;;;;;29.18;44.08;99623.78;6297963;28;20048;-74
2022/05/25 13:10:13;;;;;;;12.73;3.63;;;;;;;28.86;44.90;99614.00;6298208;28;20047;-74
2022/05/25 13:13:32;;;;;;;15.13;3.40;;;;;;;28.47;46.87;99616.03;6296932;28;20447;-74
2022/05/25 13:16:46;;;;;;;10.65;3.78;;;;;;;28.62;45.72;99610.38;6279680;28;20051;-74
2022/05/25 13:19:47;;;;;;;11.15;3.75;;;;;;;28.66;46.94;99610.72;6296833;28;20107;-73
2022/05/25 13:22:47;;;;;;;13.45;4.15;;;;;;;28.91;45.50;99611.47;6280223;28;20388;-77
2022/05/25 13:26:01;;;;;;;14.18;3.70;;;;;;;28.97;45.45;99611.59;6297892;28;20044;-74
2022/05/25 13:29:19;;;;;;;10.55;3.90;;;;;;;28.93;45.05;99614.75;6279785;28;20122;-74
2022/05/25 13:32:37;;;;;;;11.55;3.63;;;;;;;29.19;45.23;99606.63;6296484;28;20091;-74
2022/05/25 13:36:05;;;;;;;9.43;3.65;;;;;;;29.18;44.95;99599.59;6279681;28;20499;-77
2022/05/25 13:39:07;;;;;;;10.15;3.85;;;;;;;29.01;45.31;99600.19;6296384;28;20045;-74
2022/05/25 13:42:12;;;;;;;13.13;3.70;;;;;;;29.18;46.45;99616.56;6297575;28;20047;-74
2022/05/25 13:45:25;;;;;;;7.00;3.95;;;;;;;29.30;46.08;99603.16;6296091;28;20064;-74
2022/05/25 13:48:26;;;;;;;8.25;4.15;;;;;;;29.13;46.04;99606.47;6279510;28;20048;-77
2022/05/25 13:51:27;;;;;;;7.45;3.92;;;;;;;28.88;46.60;99601.16;6279428;28;20430;-77
2022/05/25 13:54:34;;;;;;;9.60;3.75;;;;;;;28.78;47.01;99592.00;6296211;28;20044;-76
2022/05/25 13:57:40;;;;;;;7.53;4.10;;;;;;;28.92;48.12;99588.13;6297036;28;20059;-77
2022/05/25 14:00:46;;;;;;;13.13;4.53;;;;;;;28.76;48.97;99588.72;6295898;28;20471;-74
2022/05/25 14:03:52;;;;;;;8.90;4.13;;;;;;;28.84;47.27;99583.88;6297010;28;20065;-74
2022/05/25 14:06:53;;;;;;;10.68;4.47;;;;;;;28.58;47.86;99581.50;6295311;28;20079;-76
2022/05/25 14:13:18;;;;;;;12.15;4.32;;;;;;;28.46;48.83;99578.72;6296852;28;20166;-76
2022/05/25 14:16:21;;;;;;;8.93;4.18;;;;;;;28.30;49.52;99566.69;6278837;28;20059;-77
2022/05/25 14:19:31;;;;;;;9.25;4.15;;;;;;;28.47;49.17;99564.22;6295356;28;20055;-76
2022/05/25 14:22:33;;;;;;;8.23;4.13;;;;;;;28.58;49.68;99570.75;6278660;28;20048;-76
2022/05/25 14:25:43;;;;;;;12.02;4.10;;;;;;;28.43;49.43;99573.78;6296717;28;20406;-74
2022/05/25 14:28:44;;;;;;;15.05;4.70;;;;;;;28.38;48.69;99566.41;6287692;28;20505;-74
2022/05/25 14:31:48;;;;;;;10.43;4.60;;;;;;;28.38;49.66;99561.03;6270425;28;20049;-73
2022/05/25 14:34:52;;;;;;;7.35;4.30;;;;;;;28.69;49.13;99560.09;6303885;28;20063;-74
2022/05/25 14:37:54;;;;;;;9.18;3.95;;;;;;;28.86;49.99;99557.63;6253607;28;20416;-73
2022/05/25 14:40:55;;;;;;;7.18;3.63;;;;;;;28.67;46.60;99564.06;6286964;28;20573;-73
2022/05/25 14:43:57;;;;;;;;;;;;;;;28.48;47.20;99569.38;6237698;28;20423;-74
2022/05/25 14:46:58;;;;;;;8.63;3.60;;;;;;;28.65;46.04;99574.19;6286800;28;19931;-74
2022/05/25 14:50:17;;;;;;;10.50;3.45;;;;;;;28.66;47.00;99570.47;6270255;28;20041;-73
2022/05/25 14:53:21;;;;;;;16.13;3.90;;;;;;;28.65;47.46;99568.84;6271475;28;20045;-73
2022/05/25 14:56:30;;;;;;;9.85;3.53;;;;;;;28.78;45.13;99560.63;6271269;28;20045;-76
2022/05/25 14:59:35;;;;;;;10.55;3.65;;;;;;;28.86;45.59;99559.50;6253604;28;20073;-76
2022/05/25 15:02:39;;;;;;;7.78;3.47;;;;;;;28.70;45.95;99564.44;6269881;28;20059;-75
2022/05/25 15:05:44;;;;;;;11.48;3.30;;;;;;;28.54;45.45;99559.66;6269819;28;20057;-76
2022/05/25 15:08:51;;;;;;;8.68;3.42;;;;;;;28.62;47.10;99563.91;6269819;28;20052;-76
2022/05/25 15:12:11;;;;;;;9.63;3.97;;;;;;;28.62;46.36;99567.41;6270768;28;20076;-76